sensor_id;sensor_type;location;lat;lon;timestamp;temperature;humidity
18998;DHT22;9632;51.018;4.284;2023-05-14T00:00:50;15.40;99.90
18998;DHT22;9632;51.018;4.284;2023-05-14T00:03:16;15.40;99.90
18998;DHT22;9632;51.018;4.284;2023-05-14T00:05:42;15.40;99.90
18998;DHT22;9632;51.018;4.284;2023-05-14T00:08:07;15.40;99.90
18998;DHT22;9632;51.018;4.284;2023-05-14T00:10:33;15.40;99.90
18998;DHT22;9632;51.018;4.284;2023-05-14T00:12:59;15.40;99.90
18998;DHT22;9632;51.018;4.284;2023-05-14T00:15:25;15.40;99.90
18998;DHT22;9632;51.018;4.284;2023-05-14T00:17:50;15.30;99.90
18998;DHT22;9632;51.018;4.284;2023-05-14T00:20:16;15.30;99.90
18998;DHT22;9632;51.018;4.284;2023-05-14T00:22:42;15.30;99.90
18998;DHT22;9632;51.018;4.284;2023-05-14T00:25:08;15.30;99.90
18998;DHT22;9632;51.018;4.284;2023-05-14T00:27:34;15.30;99.90
18998;DHT22;9632;51.018;4.284;2023-05-14T00:30:03;15.30;99.90
18998;DHT22;9632;51.018;4.284;2023-05-14T00:32:29;15.20;99.90
18998;DHT22;9632;51.018;4.284;2023-05-14T00:34:54;15.20;99.90
18998;DHT22;9632;51.018;4.284;2023-05-14T00:37:20;15.20;99.90
18998;DHT22;9632;51.018;4.284;2023-05-14T00:39:45;15.20;99.90
18998;DHT22;9632;51.018;4.284;2023-05-14T00:42:11;15.20;99.90
18998;DHT22;9632;51.018;4.284;2023-05-14T00:44:37;15.20;99.90
18998;DHT22;9632;51.018;4.284;2023-05-14T00:47:02;15.20;99.90
18998;DHT22;9632;51.018;4.284;2023-05-14T00:49:28;15.20;99.90
18998;DHT22;9632;51.018;4.284;2023-05-14T00:51:54;15.20;99.90
18998;DHT22;9632;51.018;4.284;2023-05-14T00:54:20;15.20;99.90
18998;DHT22;9632;51.018;4.284;2023-05-14T00:56:46;15.20;99.90
18998;DHT22;9632;51.018;4.284;2023-05-14T00:59:12;15.20;99.90
18998;DHT22;9632;51.018;4.284;2023-05-14T01:01:38;15.20;99.90
18998;DHT22;9632;51.018;4.284;2023-05-14T01:04:05;15.20;99.90
18998;DHT22;9632;51.018;4.284;2023-05-14T01:10:02;15.20;99.90
18998;DHT22;9632;51.018;4.284;2023-05-14T01:15:22;15.20;99.90
18998;DHT22;9632;51.018;4.284;2023-05-14T01:18:09;15.20;99.90
18998;DHT22;9632;51.018;4.284;2023-05-14T01:20:35;15.20;99.90
18998;DHT22;9632;51.018;4.284;2023-05-14T01:23:01;15.30;99.90
18998;DHT22;9632;51.018;4.284;2023-05-14T01:25:29;15.30;99.90
18998;DHT22;9632;51.018;4.284;2023-05-14T01:28:17;15.30;99.90
18998;DHT22;9632;51.018;4.284;2023-05-14T01:33:12;15.30;99.90
18998;DHT22;9632;51.018;4.284;2023-05-14T01:35:38;15.30;99.90
18998;DHT22;9632;51.018;4.284;2023-05-14T01:38:08;15.30;99.90
18998;DHT22;9632;51.018;4.284;2023-05-14T01:40:35;15.30;99.90
18998;DHT22;9632;51.018;4.284;2023-05-14T01:43:02;15.30;99.90
18998;DHT22;9632;51.018;4.284;2023-05-14T01:45:29;15.30;99.90
18998;DHT22;9632;51.018;4.284;2023-05-14T01:47:55;15.20;99.90
18998;DHT22;9632;51.018;4.284;2023-05-14T01:50:21;15.20;99.90
18998;DHT22;9632;51.018;4.284;2023-05-14T01:52:47;15.20;99.90
18998;DHT22;9632;51.018;4.284;2023-05-14T01:55:13;15.30;99.90
18998;DHT22;9632;51.018;4.284;2023-05-14T01:57:40;15.20;99.90
18998;DHT22;9632;51.018;4.284;2023-05-14T02:00:06;15.20;99.90
18998;DHT22;9632;51.018;4.284;2023-05-14T02:02:32;15.30;99.90
18998;DHT22;9632;51.018;4.284;2023-05-14T02:04:57;15.30;99.90
18998;DHT22;9632;51.018;4.284;2023-05-14T02:07:23;15.30;99.90
18998;DHT22;9632;51.018;4.284;2023-05-14T02:09:48;15.20;99.90
18998;DHT22;9632;51.018;4.284;2023-05-14T02:12:14;15.20;99.90
18998;DHT22;9632;51.018;4.284;2023-05-14T02:14:40;15.20;99.90
18998;DHT22;9632;51.018;4.284;2023-05-14T02:17:05;15.20;99.90
18998;DHT22;9632;51.018;4.284;2023-05-14T02:19:31;15.20;99.90
18998;DHT22;9632;51.018;4.284;2023-05-14T02:21:58;15.20;99.90
18998;DHT22;9632;51.018;4.284;2023-05-14T02:24:24;15.20;99.90
18998;DHT22;9632;51.018;4.284;2023-05-14T02:26:50;15.20;99.90
18998;DHT22;9632;51.018;4.284;2023-05-14T02:29:15;15.20;99.90
18998;DHT22;9632;51.018;4.284;2023-05-14T02:31:41;15.20;99.90
18998;DHT22;9632;51.018;4.284;2023-05-14T02:34:06;15.20;99.90
18998;DHT22;9632;51.018;4.284;2023-05-14T02:36:32;15.30;99.90
18998;DHT22;9632;51.018;4.284;2023-05-14T02:38:58;15.30;99.90
18998;DHT22;9632;51.018;4.284;2023-05-14T02:41:25;15.30;99.90
18998;DHT22;9632;51.018;4.284;2023-05-14T02:43:52;15.30;99.90
18998;DHT22;9632;51.018;4.284;2023-05-14T02:46:18;15.30;99.90
18998;DHT22;9632;51.018;4.284;2023-05-14T02:48:44;15.30;99.90
18998;DHT22;9632;51.018;4.284;2023-05-14T02:51:09;15.30;99.90
18998;DHT22;9632;51.018;4.284;2023-05-14T02:53:35;15.30;99.90
18998;DHT22;9632;51.018;4.284;2023-05-14T02:56:01;15.30;99.90
18998;DHT22;9632;51.018;4.284;2023-05-14T02:58:26;15.30;99.90
18998;DHT22;9632;51.018;4.284;2023-05-14T03:00:52;15.30;99.90
18998;DHT22;9632;51.018;4.284;2023-05-14T03:03:18;15.20;99.90
18998;DHT22;9632;51.018;4.284;2023-05-14T03:05:44;15.20;99.90
18998;DHT22;9632;51.018;4.284;2023-05-14T03:08:10;15.20;99.90
18998;DHT22;9632;51.018;4.284;2023-05-14T03:10:35;15.20;99.90
18998;DHT22;9632;51.018;4.284;2023-05-14T03:13:01;15.20;99.90
18998;DHT22;9632;51.018;4.284;2023-05-14T03:15:27;15.20;99.90
18998;DHT22;9632;51.018;4.284;2023-05-14T03:17:53;15.20;99.90
18998;DHT22;9632;51.018;4.284;2023-05-14T03:20:18;15.20;99.90
18998;DHT22;9632;51.018;4.284;2023-05-14T03:22:45;15.20;99.90
18998;DHT22;9632;51.018;4.284;2023-05-14T03:25:10;15.20;99.90
18998;DHT22;9632;51.018;4.284;2023-05-14T03:27:36;15.20;99.90
18998;DHT22;9632;51.018;4.284;2023-05-14T03:30:02;15.10;99.90
18998;DHT22;9632;51.018;4.284;2023-05-14T03:32:27;15.20;99.90
18998;DHT22;9632;51.018;4.284;2023-05-14T03:34:53;15.20;99.90
18998;DHT22;9632;51.018;4.284;2023-05-14T03:37:20;15.20;99.90
18998;DHT22;9632;51.018;4.284;2023-05-14T03:39:45;15.20;99.90
18998;DHT22;9632;51.018;4.284;2023-05-14T03:42:11;15.20;99.90
18998;DHT22;9632;51.018;4.284;2023-05-14T03:44:36;15.20;99.90
18998;DHT22;9632;51.018;4.284;2023-05-14T03:47:02;15.10;99.90
18998;DHT22;9632;51.018;4.284;2023-05-14T03:49:28;15.20;99.90
18998;DHT22;9632;51.018;4.284;2023-05-14T03:51:53;15.10;99.90
18998;DHT22;9632;51.018;4.284;2023-05-14T03:54:19;15.10;99.90
18998;DHT22;9632;51.018;4.284;2023-05-14T03:56:45;15.10;99.90
18998;DHT22;9632;51.018;4.284;2023-05-14T03:59:10;15.10;99.90
18998;DHT22;9632;51.018;4.284;2023-05-14T04:01:36;15.10;99.90
18998;DHT22;9632;51.018;4.284;2023-05-14T04:04:02;15.20;99.90
18998;DHT22;9632;51.018;4.284;2023-05-14T04:06:27;15.10;99.90
18998;DHT22;9632;51.018;4.284;2023-05-14T04:08:53;15.10;99.90
18998;DHT22;9632;51.018;4.284;2023-05-14T04:11:18;15.10;99.90
18998;DHT22;9632;51.018;4.284;2023-05-14T04:13:45;15.10;99.90
18998;DHT22;9632;51.018;4.284;2023-05-14T04:16:11;15.10;99.90
18998;DHT22;9632;51.018;4.284;2023-05-14T04:18:36;15.10;99.90
18998;DHT22;9632;51.018;4.284;2023-05-14T04:21:02;15.10;99.90
18998;DHT22;9632;51.018;4.284;2023-05-14T04:23:28;15.10;99.90
18998;DHT22;9632;51.018;4.284;2023-05-14T04:25:56;15.00;99.90
18998;DHT22;9632;51.018;4.284;2023-05-14T04:28:22;15.00;99.90
18998;DHT22;9632;51.018;4.284;2023-05-14T04:30:48;15.10;99.90
18998;DHT22;9632;51.018;4.284;2023-05-14T04:33:13;15.10;99.90
18998;DHT22;9632;51.018;4.284;2023-05-14T04:35:39;15.10;99.90
18998;DHT22;9632;51.018;4.284;2023-05-14T04:38:04;15.10;99.90
18998;DHT22;9632;51.018;4.284;2023-05-14T04:40:30;15.10;99.90
18998;DHT22;9632;51.018;4.284;2023-05-14T04:42:56;15.10;99.90
18998;DHT22;9632;51.018;4.284;2023-05-14T04:45:22;15.10;99.90
18998;DHT22;9632;51.018;4.284;2023-05-14T04:47:48;15.20;99.90
18998;DHT22;9632;51.018;4.284;2023-05-14T04:50:14;15.20;99.90
18998;DHT22;9632;51.018;4.284;2023-05-14T04:52:39;15.10;99.90
18998;DHT22;9632;51.018;4.284;2023-05-14T04:55:05;15.10;99.90
18998;DHT22;9632;51.018;4.284;2023-05-14T04:57:31;15.10;99.90
18998;DHT22;9632;51.018;4.284;2023-05-14T04:59:57;15.20;99.90
18998;DHT22;9632;51.018;4.284;2023-05-14T05:02:22;15.10;99.90
18998;DHT22;9632;51.018;4.284;2023-05-14T05:04:48;15.20;99.90
18998;DHT22;9632;51.018;4.284;2023-05-14T05:07:14;15.20;99.90
18998;DHT22;9632;51.018;4.284;2023-05-14T05:09:39;15.20;99.90
18998;DHT22;9632;51.018;4.284;2023-05-14T05:12:05;15.10;99.90
18998;DHT22;9632;51.018;4.284;2023-05-14T05:14:31;15.20;99.90
18998;DHT22;9632;51.018;4.284;2023-05-14T05:16:57;15.20;99.90
18998;DHT22;9632;51.018;4.284;2023-05-14T05:19:22;15.30;99.90
18998;DHT22;9632;51.018;4.284;2023-05-14T05:21:48;15.30;99.90
18998;DHT22;9632;51.018;4.284;2023-05-14T05:24:14;15.20;99.90
18998;DHT22;9632;51.018;4.284;2023-05-14T05:26:39;15.30;99.90
18998;DHT22;9632;51.018;4.284;2023-05-14T05:29:06;15.30;99.90
18998;DHT22;9632;51.018;4.284;2023-05-14T05:31:32;15.30;99.90
18998;DHT22;9632;51.018;4.284;2023-05-14T05:33:58;15.30;99.90
18998;DHT22;9632;51.018;4.284;2023-05-14T05:36:24;15.30;99.90
18998;DHT22;9632;51.018;4.284;2023-05-14T05:38:50;15.30;99.90
18998;DHT22;9632;51.018;4.284;2023-05-14T05:41:16;15.30;99.90
18998;DHT22;9632;51.018;4.284;2023-05-14T05:43:41;15.30;99.90
18998;DHT22;9632;51.018;4.284;2023-05-14T05:46:07;15.30;99.90
18998;DHT22;9632;51.018;4.284;2023-05-14T05:48:33;15.30;99.90
18998;DHT22;9632;51.018;4.284;2023-05-14T05:50:58;15.30;99.90
18998;DHT22;9632;51.018;4.284;2023-05-14T05:53:24;15.30;99.90
18998;DHT22;9632;51.018;4.284;2023-05-14T05:55:50;15.30;99.90
18998;DHT22;9632;51.018;4.284;2023-05-14T05:58:17;15.30;99.90
18998;DHT22;9632;51.018;4.284;2023-05-14T06:00:43;15.30;99.90
18998;DHT22;9632;51.018;4.284;2023-05-14T06:03:10;15.30;99.90
18998;DHT22;9632;51.018;4.284;2023-05-14T06:05:36;15.20;99.90
18998;DHT22;9632;51.018;4.284;2023-05-14T06:08:02;15.20;99.90
18998;DHT22;9632;51.018;4.284;2023-05-14T06:10:27;15.30;99.90
18998;DHT22;9632;51.018;4.284;2023-05-14T06:12:53;15.30;99.90
18998;DHT22;9632;51.018;4.284;2023-05-14T06:15:19;15.30;99.90
18998;DHT22;9632;51.018;4.284;2023-05-14T06:17:45;15.30;99.90
18998;DHT22;9632;51.018;4.284;2023-05-14T06:20:11;15.40;99.90
18998;DHT22;9632;51.018;4.284;2023-05-14T06:22:36;15.40;99.90
18998;DHT22;9632;51.018;4.284;2023-05-14T06:25:03;15.40;99.90
18998;DHT22;9632;51.018;4.284;2023-05-14T06:27:28;15.50;99.90
18998;DHT22;9632;51.018;4.284;2023-05-14T06:29:54;15.50;99.90
18998;DHT22;9632;51.018;4.284;2023-05-14T06:32:20;15.50;99.90
18998;DHT22;9632;51.018;4.284;2023-05-14T06:34:46;15.50;99.90
18998;DHT22;9632;51.018;4.284;2023-05-14T06:37:11;15.50;99.90
18998;DHT22;9632;51.018;4.284;2023-05-14T06:39:37;15.50;99.90
18998;DHT22;9632;51.018;4.284;2023-05-14T06:42:03;15.50;99.90
18998;DHT22;9632;51.018;4.284;2023-05-14T06:44:29;15.60;99.90
18998;DHT22;9632;51.018;4.284;2023-05-14T06:46:55;15.60;99.90
18998;DHT22;9632;51.018;4.284;2023-05-14T06:49:21;15.60;99.90
18998;DHT22;9632;51.018;4.284;2023-05-14T06:51:47;15.60;99.90
18998;DHT22;9632;51.018;4.284;2023-05-14T06:54:13;15.70;99.90
18998;DHT22;9632;51.018;4.284;2023-05-14T06:56:38;15.70;99.90
18998;DHT22;9632;51.018;4.284;2023-05-14T06:59:04;15.70;99.90
18998;DHT22;9632;51.018;4.284;2023-05-14T07:01:30;15.70;99.90
18998;DHT22;9632;51.018;4.284;2023-05-14T07:03:56;15.70;99.90
18998;DHT22;9632;51.018;4.284;2023-05-14T07:06:22;15.70;99.90
18998;DHT22;9632;51.018;4.284;2023-05-14T07:08:47;15.70;99.90
18998;DHT22;9632;51.018;4.284;2023-05-14T07:11:13;15.70;99.90
18998;DHT22;9632;51.018;4.284;2023-05-14T07:13:40;15.70;99.90
18998;DHT22;9632;51.018;4.284;2023-05-14T07:16:07;15.70;99.90
18998;DHT22;9632;51.018;4.284;2023-05-14T07:18:35;15.80;99.90
18998;DHT22;9632;51.018;4.284;2023-05-14T07:21:01;15.80;99.90
18998;DHT22;9632;51.018;4.284;2023-05-14T07:23:26;15.80;99.90
18998;DHT22;9632;51.018;4.284;2023-05-14T07:25:52;15.80;99.90
18998;DHT22;9632;51.018;4.284;2023-05-14T07:28:18;15.90;99.90
18998;DHT22;9632;51.018;4.284;2023-05-14T07:30:43;16.00;99.90
18998;DHT22;9632;51.018;4.284;2023-05-14T07:33:09;16.00;99.90
18998;DHT22;9632;51.018;4.284;2023-05-14T07:35:35;16.10;99.90
18998;DHT22;9632;51.018;4.284;2023-05-14T07:38:00;16.10;99.90
18998;DHT22;9632;51.018;4.284;2023-05-14T07:40:26;16.10;99.90
18998;DHT22;9632;51.018;4.284;2023-05-14T07:42:52;16.10;99.90
18998;DHT22;9632;51.018;4.284;2023-05-14T07:45:17;16.20;99.90
18998;DHT22;9632;51.018;4.284;2023-05-14T07:47:43;16.10;99.90
18998;DHT22;9632;51.018;4.284;2023-05-14T07:50:09;16.20;99.90
18998;DHT22;9632;51.018;4.284;2023-05-14T07:52:35;16.30;99.90
18998;DHT22;9632;51.018;4.284;2023-05-14T07:55:02;16.30;99.90
18998;DHT22;9632;51.018;4.284;2023-05-14T07:57:28;16.30;99.90
18998;DHT22;9632;51.018;4.284;2023-05-14T07:59:53;16.40;99.90
18998;DHT22;9632;51.018;4.284;2023-05-14T08:02:19;16.50;99.90
18998;DHT22;9632;51.018;4.284;2023-05-14T08:04:44;16.50;99.90
18998;DHT22;9632;51.018;4.284;2023-05-14T08:07:10;16.50;99.90
18998;DHT22;9632;51.018;4.284;2023-05-14T08:09:36;16.50;99.90
18998;DHT22;9632;51.018;4.284;2023-05-14T08:12:02;16.50;99.90
18998;DHT22;9632;51.018;4.284;2023-05-14T08:14:27;16.50;99.90
18998;DHT22;9632;51.018;4.284;2023-05-14T08:16:53;16.60;99.90
18998;DHT22;9632;51.018;4.284;2023-05-14T08:19:19;16.60;99.90
18998;DHT22;9632;51.018;4.284;2023-05-14T08:21:45;16.60;99.90
18998;DHT22;9632;51.018;4.284;2023-05-14T08:24:10;16.60;99.90
18998;DHT22;9632;51.018;4.284;2023-05-14T08:26:36;16.60;99.90
18998;DHT22;9632;51.018;4.284;2023-05-14T08:29:03;16.70;99.90
18998;DHT22;9632;51.018;4.284;2023-05-14T08:31:29;16.70;99.90
18998;DHT22;9632;51.018;4.284;2023-05-14T08:33:55;16.80;99.90
18998;DHT22;9632;51.018;4.284;2023-05-14T08:36:20;16.80;99.90
18998;DHT22;9632;51.018;4.284;2023-05-14T08:38:46;16.80;99.90
18998;DHT22;9632;51.018;4.284;2023-05-14T08:41:14;16.80;99.90
18998;DHT22;9632;51.018;4.284;2023-05-14T08:43:44;16.80;99.90
18998;DHT22;9632;51.018;4.284;2023-05-14T08:46:13;16.80;99.90
18998;DHT22;9632;51.018;4.284;2023-05-14T08:48:42;16.80;99.90
18998;DHT22;9632;51.018;4.284;2023-05-14T08:51:10;16.80;99.90
18998;DHT22;9632;51.018;4.284;2023-05-14T08:53:36;16.80;99.90
18998;DHT22;9632;51.018;4.284;2023-05-14T08:56:05;16.80;99.90
18998;DHT22;9632;51.018;4.284;2023-05-14T08:58:31;16.80;99.90
18998;DHT22;9632;51.018;4.284;2023-05-14T09:00:57;16.80;99.90
18998;DHT22;9632;51.018;4.284;2023-05-14T09:03:22;16.90;99.90
18998;DHT22;9632;51.018;4.284;2023-05-14T09:05:50;16.90;99.90
18998;DHT22;9632;51.018;4.284;2023-05-14T09:08:16;17.00;99.90
18998;DHT22;9632;51.018;4.284;2023-05-14T09:10:42;17.00;99.90
18998;DHT22;9632;51.018;4.284;2023-05-14T09:13:08;17.10;99.90
18998;DHT22;9632;51.018;4.284;2023-05-14T09:15:36;17.20;99.90
18998;DHT22;9632;51.018;4.284;2023-05-14T09:18:06;17.20;99.90
18998;DHT22;9632;51.018;4.284;2023-05-14T09:20:32;17.30;99.90
18998;DHT22;9632;51.018;4.284;2023-05-14T09:22:58;17.40;99.90
18998;DHT22;9632;51.018;4.284;2023-05-14T09:25:30;17.40;99.90
18998;DHT22;9632;51.018;4.284;2023-05-14T09:27:56;17.50;99.90
18998;DHT22;9632;51.018;4.284;2023-05-14T09:30:23;17.50;99.90
18998;DHT22;9632;51.018;4.284;2023-05-14T09:32:52;17.60;99.90
18998;DHT22;9632;51.018;4.284;2023-05-14T09:35:23;17.70;99.90
18998;DHT22;9632;51.018;4.284;2023-05-14T09:37:53;17.70;99.90
18998;DHT22;9632;51.018;4.284;2023-05-14T09:40:20;17.70;99.90
18998;DHT22;9632;51.018;4.284;2023-05-14T09:42:46;17.90;99.90
18998;DHT22;9632;51.018;4.284;2023-05-14T09:45:13;17.90;99.90
18998;DHT22;9632;51.018;4.284;2023-05-14T09:47:40;18.00;99.90
18998;DHT22;9632;51.018;4.284;2023-05-14T09:50:06;18.10;99.90
18998;DHT22;9632;51.018;4.284;2023-05-14T09:52:34;18.20;99.90
18998;DHT22;9632;51.018;4.284;2023-05-14T09:55:00;18.40;99.90
18998;DHT22;9632;51.018;4.284;2023-05-14T09:57:26;18.50;99.90
18998;DHT22;9632;51.018;4.284;2023-05-14T09:59:52;18.60;99.90
18998;DHT22;9632;51.018;4.284;2023-05-14T10:02:28;18.70;99.90
18998;DHT22;9632;51.018;4.284;2023-05-14T10:04:58;18.80;99.90
18998;DHT22;9632;51.018;4.284;2023-05-14T10:07:52;18.90;99.90
18998;DHT22;9632;51.018;4.284;2023-05-14T10:10:19;19.00;99.90
18998;DHT22;9632;51.018;4.284;2023-05-14T10:12:56;19.00;99.90
18998;DHT22;9632;51.018;4.284;2023-05-14T10:16:04;19.10;99.90
18998;DHT22;9632;51.018;4.284;2023-05-14T10:18:39;19.20;99.90
18998;DHT22;9632;51.018;4.284;2023-05-14T10:21:07;19.30;99.90
18998;DHT22;9632;51.018;4.284;2023-05-14T10:23:35;19.40;99.90
18998;DHT22;9632;51.018;4.284;2023-05-14T10:26:05;19.50;99.90
18998;DHT22;9632;51.018;4.284;2023-05-14T10:28:31;19.50;99.90
18998;DHT22;9632;51.018;4.284;2023-05-14T10:30:58;19.60;99.90
18998;DHT22;9632;51.018;4.284;2023-05-14T10:33:24;19.70;99.90
18998;DHT22;9632;51.018;4.284;2023-05-14T10:38:34;20.00;99.90
18998;DHT22;9632;51.018;4.284;2023-05-14T10:41:05;20.00;99.90
18998;DHT22;9632;51.018;4.284;2023-05-14T10:43:36;20.10;99.90
18998;DHT22;9632;51.018;4.284;2023-05-14T10:46:03;20.20;99.90
18998;DHT22;9632;51.018;4.284;2023-05-14T10:48:29;20.30;99.90
18998;DHT22;9632;51.018;4.284;2023-05-14T10:50:56;20.40;99.90
18998;DHT22;9632;51.018;4.284;2023-05-14T10:53:42;20.40;99.90
18998;DHT22;9632;51.018;4.284;2023-05-14T10:56:12;20.50;99.90
18998;DHT22;9632;51.018;4.284;2023-05-14T10:58:41;20.60;99.90
18998;DHT22;9632;51.018;4.284;2023-05-14T11:01:08;20.70;99.90
18998;DHT22;9632;51.018;4.284;2023-05-14T11:03:40;20.80;99.90
18998;DHT22;9632;51.018;4.284;2023-05-14T11:06:06;20.90;99.90
18998;DHT22;9632;51.018;4.284;2023-05-14T11:08:32;21.00;99.90
18998;DHT22;9632;51.018;4.284;2023-05-14T11:10:59;21.10;99.90
18998;DHT22;9632;51.018;4.284;2023-05-14T11:13:27;21.10;99.90
18998;DHT22;9632;51.018;4.284;2023-05-14T11:15:54;21.10;99.90
18998;DHT22;9632;51.018;4.284;2023-05-14T11:18:30;21.20;99.90
18998;DHT22;9632;51.018;4.284;2023-05-14T11:20:58;21.20;99.90
18998;DHT22;9632;51.018;4.284;2023-05-14T11:23:24;21.20;99.90
18998;DHT22;9632;51.018;4.284;2023-05-14T11:25:55;21.30;99.90
18998;DHT22;9632;51.018;4.284;2023-05-14T11:28:24;21.40;99.90
18998;DHT22;9632;51.018;4.284;2023-05-14T11:30:51;21.40;99.90
18998;DHT22;9632;51.018;4.284;2023-05-14T11:33:17;21.50;99.90
18998;DHT22;9632;51.018;4.284;2023-05-14T11:35:44;21.60;99.90
18998;DHT22;9632;51.018;4.284;2023-05-14T11:38:16;21.70;99.90
18998;DHT22;9632;51.018;4.284;2023-05-14T11:40:50;21.80;99.90
18998;DHT22;9632;51.018;4.284;2023-05-14T11:43:16;21.80;99.90
18998;DHT22;9632;51.018;4.284;2023-05-14T11:45:42;21.80;99.90
18998;DHT22;9632;51.018;4.284;2023-05-14T11:48:13;21.90;99.90
18998;DHT22;9632;51.018;4.284;2023-05-14T11:50:39;21.90;99.90
18998;DHT22;9632;51.018;4.284;2023-05-14T11:53:05;22.00;99.90
18998;DHT22;9632;51.018;4.284;2023-05-14T11:55:33;22.00;99.90
18998;DHT22;9632;51.018;4.284;2023-05-14T11:58:00;22.10;99.90
18998;DHT22;9632;51.018;4.284;2023-05-14T12:00:26;22.10;99.90
18998;DHT22;9632;51.018;4.284;2023-05-14T12:02:52;22.10;99.90
18998;DHT22;9632;51.018;4.284;2023-05-14T12:05:19;22.10;99.90
18998;DHT22;9632;51.018;4.284;2023-05-14T12:07:45;22.10;99.90
18998;DHT22;9632;51.018;4.284;2023-05-14T12:10:11;22.10;99.90
18998;DHT22;9632;51.018;4.284;2023-05-14T12:12:37;22.10;99.90
18998;DHT22;9632;51.018;4.284;2023-05-14T12:15:10;22.10;99.90
18998;DHT22;9632;51.018;4.284;2023-05-14T12:17:37;22.10;99.90
18998;DHT22;9632;51.018;4.284;2023-05-14T12:20:05;22.20;99.90
18998;DHT22;9632;51.018;4.284;2023-05-14T12:22:33;22.30;99.90
18998;DHT22;9632;51.018;4.284;2023-05-14T12:24:59;22.30;99.90
18998;DHT22;9632;51.018;4.284;2023-05-14T12:27:26;22.20;99.90
18998;DHT22;9632;51.018;4.284;2023-05-14T12:29:59;22.30;99.90
18998;DHT22;9632;51.018;4.284;2023-05-14T12:32:26;22.40;99.90
18998;DHT22;9632;51.018;4.284;2023-05-14T12:34:52;22.30;99.90
18998;DHT22;9632;51.018;4.284;2023-05-14T12:37:18;22.40;99.90
18998;DHT22;9632;51.018;4.284;2023-05-14T12:39:43;22.40;99.90
18998;DHT22;9632;51.018;4.284;2023-05-14T12:42:09;22.50;99.90
18998;DHT22;9632;51.018;4.284;2023-05-14T12:44:35;22.60;99.90
18998;DHT22;9632;51.018;4.284;2023-05-14T12:47:01;22.60;99.90
18998;DHT22;9632;51.018;4.284;2023-05-14T12:49:26;22.60;99.90
18998;DHT22;9632;51.018;4.284;2023-05-14T12:51:52;22.60;99.90
18998;DHT22;9632;51.018;4.284;2023-05-14T12:54:18;22.60;99.90
18998;DHT22;9632;51.018;4.284;2023-05-14T12:56:43;22.60;99.90
18998;DHT22;9632;51.018;4.284;2023-05-14T12:59:09;22.60;99.90
18998;DHT22;9632;51.018;4.284;2023-05-14T13:01:35;22.60;99.90
18998;DHT22;9632;51.018;4.284;2023-05-14T13:04:03;22.60;99.90
18998;DHT22;9632;51.018;4.284;2023-05-14T13:06:28;22.60;99.90
18998;DHT22;9632;51.018;4.284;2023-05-14T13:08:56;22.70;99.90
18998;DHT22;9632;51.018;4.284;2023-05-14T13:11:24;22.70;99.90
18998;DHT22;9632;51.018;4.284;2023-05-14T13:13:51;22.80;99.90
18998;DHT22;9632;51.018;4.284;2023-05-14T13:16:17;22.80;99.90
18998;DHT22;9632;51.018;4.284;2023-05-14T13:18:43;22.80;99.90
18998;DHT22;9632;51.018;4.284;2023-05-14T13:21:08;22.90;99.90
18998;DHT22;9632;51.018;4.284;2023-05-14T13:23:34;22.90;99.90
18998;DHT22;9632;51.018;4.284;2023-05-14T13:25:59;22.90;99.90
18998;DHT22;9632;51.018;4.284;2023-05-14T13:28:25;23.00;99.90
18998;DHT22;9632;51.018;4.284;2023-05-14T13:31:08;23.10;99.90
18998;DHT22;9632;51.018;4.284;2023-05-14T13:33:40;23.10;99.90
18998;DHT22;9632;51.018;4.284;2023-05-14T13:36:06;23.20;99.90
18998;DHT22;9632;51.018;4.284;2023-05-14T13:38:32;23.20;99.90
18998;DHT22;9632;51.018;4.284;2023-05-14T13:40:58;23.10;99.90
18998;DHT22;9632;51.018;4.284;2023-05-14T13:43:30;23.10;99.90
18998;DHT22;9632;51.018;4.284;2023-05-14T13:45:56;23.10;99.90
18998;DHT22;9632;51.018;4.284;2023-05-14T13:48:22;23.10;99.90
18998;DHT22;9632;51.018;4.284;2023-05-14T13:50:48;23.10;99.90
18998;DHT22;9632;51.018;4.284;2023-05-14T13:53:14;23.10;99.90
18998;DHT22;9632;51.018;4.284;2023-05-14T13:55:40;23.20;99.90
18998;DHT22;9632;51.018;4.284;2023-05-14T13:58:05;23.20;99.90
18998;DHT22;9632;51.018;4.284;2023-05-14T14:00:32;23.20;99.90
18998;DHT22;9632;51.018;4.284;2023-05-14T14:02:58;23.20;99.90
18998;DHT22;9632;51.018;4.284;2023-05-14T14:05:24;23.30;99.90
18998;DHT22;9632;51.018;4.284;2023-05-14T14:07:53;23.30;99.90
18998;DHT22;9632;51.018;4.284;2023-05-14T14:10:19;23.30;99.90
18998;DHT22;9632;51.018;4.284;2023-05-14T14:12:45;23.30;99.90
18998;DHT22;9632;51.018;4.284;2023-05-14T14:15:11;23.30;99.90
18998;DHT22;9632;51.018;4.284;2023-05-14T14:17:37;23.30;99.90
18998;DHT22;9632;51.018;4.284;2023-05-14T14:20:04;23.30;99.90
18998;DHT22;9632;51.018;4.284;2023-05-14T14:22:30;23.30;99.90
18998;DHT22;9632;51.018;4.284;2023-05-14T14:24:56;23.30;99.90
18998;DHT22;9632;51.018;4.284;2023-05-14T14:27:22;23.30;99.90
18998;DHT22;9632;51.018;4.284;2023-05-14T14:29:47;23.30;99.90
18998;DHT22;9632;51.018;4.284;2023-05-14T14:32:13;23.40;99.90
18998;DHT22;9632;51.018;4.284;2023-05-14T14:34:38;23.40;99.90
18998;DHT22;9632;51.018;4.284;2023-05-14T14:37:04;23.40;99.90
18998;DHT22;9632;51.018;4.284;2023-05-14T14:39:30;23.40;99.90
18998;DHT22;9632;51.018;4.284;2023-05-14T14:41:56;23.40;99.90
18998;DHT22;9632;51.018;4.284;2023-05-14T14:44:21;23.30;99.90
18998;DHT22;9632;51.018;4.284;2023-05-14T14:46:47;23.30;99.90
18998;DHT22;9632;51.018;4.284;2023-05-14T14:49:13;23.20;99.90
18998;DHT22;9632;51.018;4.284;2023-05-14T14:51:38;23.10;99.90
18998;DHT22;9632;51.018;4.284;2023-05-14T14:54:05;23.00;99.90
18998;DHT22;9632;51.018;4.284;2023-05-14T14:56:31;22.90;99.90
18998;DHT22;9632;51.018;4.284;2023-05-14T14:58:56;22.90;99.90
18998;DHT22;9632;51.018;4.284;2023-05-14T15:01:22;22.80;99.90
18998;DHT22;9632;51.018;4.284;2023-05-14T15:03:48;22.80;99.90
18998;DHT22;9632;51.018;4.284;2023-05-14T15:06:13;22.60;99.90
18998;DHT22;9632;51.018;4.284;2023-05-14T15:08:39;22.50;99.90
18998;DHT22;9632;51.018;4.284;2023-05-14T15:11:06;22.40;99.90
18998;DHT22;9632;51.018;4.284;2023-05-14T15:13:32;22.40;99.90
18998;DHT22;9632;51.018;4.284;2023-05-14T15:15:58;22.30;99.90
18998;DHT22;9632;51.018;4.284;2023-05-14T15:18:24;22.20;99.90
18998;DHT22;9632;51.018;4.284;2023-05-14T15:20:50;22.00;99.90
18998;DHT22;9632;51.018;4.284;2023-05-14T15:23:17;22.00;99.90
18998;DHT22;9632;51.018;4.284;2023-05-14T15:25:42;21.90;99.90
18998;DHT22;9632;51.018;4.284;2023-05-14T15:28:08;21.80;99.90
18998;DHT22;9632;51.018;4.284;2023-05-14T15:30:34;21.80;99.90
18998;DHT22;9632;51.018;4.284;2023-05-14T15:33:00;21.70;99.90
18998;DHT22;9632;51.018;4.284;2023-05-14T15:35:25;21.60;99.90
18998;DHT22;9632;51.018;4.284;2023-05-14T15:37:54;21.50;99.90
18998;DHT22;9632;51.018;4.284;2023-05-14T15:40:20;21.40;99.90
18998;DHT22;9632;51.018;4.284;2023-05-14T15:42:46;21.30;99.90
18998;DHT22;9632;51.018;4.284;2023-05-14T15:45:12;21.20;99.90
18998;DHT22;9632;51.018;4.284;2023-05-14T15:47:39;21.20;99.90
18998;DHT22;9632;51.018;4.284;2023-05-14T15:50:05;21.10;99.90
18998;DHT22;9632;51.018;4.284;2023-05-14T15:52:31;21.00;99.90